sensor_id;sensor_type;location;lat;lon;timestamp;P1;durP1;ratioP1;P2;durP2;ratioP2
27889;SDS011;15238;49.082;9.102;2023-06-10T00:00:59;9.02;;;5.78;;
27889;SDS011;15238;49.082;9.102;2023-06-10T00:02:59;9.73;;;5.72;;
27889;SDS011;15238;49.082;9.102;2023-06-10T00:05:00;7.97;;;5.65;;
27889;SDS011;15238;49.082;9.102;2023-06-10T00:07:00;6.90;;;5.65;;
27889;SDS011;15238;49.082;9.102;2023-06-10T00:09:02;9.82;;;6.50;;
27889;SDS011;15238;49.082;9.102;2023-06-10T00:11:05;6.10;;;5.20;;
27889;SDS011;15238;49.082;9.102;2023-06-10T00:13:06;9.98;;;5.30;;
27889;SDS011;15238;49.082;9.102;2023-06-10T00:15:11;10.32;;;6.20;;
27889;SDS011;15238;49.082;9.102;2023-06-10T00:17:11;6.72;;;5.78;;
27889;SDS011;15238;49.082;9.102;2023-06-10T00:19:12;9.38;;;5.60;;
27889;SDS011;15238;49.082;9.102;2023-06-10T00:21:15;10.57;;;5.80;;
27889;SDS011;15238;49.082;9.102;2023-06-10T00:23:16;12.13;;;5.50;;
27889;SDS011;15238;49.082;9.102;2023-06-10T00:25:17;9.02;;;5.82;;
27889;SDS011;15238;49.082;9.102;2023-06-10T00:27:18;10.07;;;5.45;;
27889;SDS011;15238;49.082;9.102;2023-06-10T00:29:19;10.60;;;5.10;;
27889;SDS011;15238;49.082;9.102;2023-06-10T00:31:20;7.10;;;5.63;;
27889;SDS011;15238;49.082;9.102;2023-06-10T00:33:20;7.43;;;5.35;;
27889;SDS011;15238;49.082;9.102;2023-06-10T00:35:21;12.57;;;5.60;;
27889;SDS011;15238;49.082;9.102;2023-06-10T00:37:21;8.95;;;5.57;;
27889;SDS011;15238;49.082;9.102;2023-06-10T00:39:22;8.60;;;5.38;;
27889;SDS011;15238;49.082;9.102;2023-06-10T00:41:23;11.13;;;5.70;;
27889;SDS011;15238;49.082;9.102;2023-06-10T00:43:23;8.85;;;5.95;;
27889;SDS011;15238;49.082;9.102;2023-06-10T00:45:24;7.68;;;5.93;;
27889;SDS011;15238;49.082;9.102;2023-06-10T00:47:25;7.35;;;5.60;;
27889;SDS011;15238;49.082;9.102;2023-06-10T00:49:26;7.72;;;6.05;;
27889;SDS011;15238;49.082;9.102;2023-06-10T00:51:27;9.85;;;6.18;;
27889;SDS011;15238;49.082;9.102;2023-06-10T00:53:27;8.20;;;5.75;;
27889;SDS011;15238;49.082;9.102;2023-06-10T00:55:28;8.70;;;5.88;;
27889;SDS011;15238;49.082;9.102;2023-06-10T00:57:29;7.45;;;5.65;;
27889;SDS011;15238;49.082;9.102;2023-06-10T00:59:30;8.68;;;5.68;;
27889;SDS011;15238;49.082;9.102;2023-06-10T01:01:31;9.35;;;6.28;;
27889;SDS011;15238;49.082;9.102;2023-06-10T01:03:32;11.40;;;6.30;;
27889;SDS011;15238;49.082;9.102;2023-06-10T01:05:36;8.95;;;6.45;;
27889;SDS011;15238;49.082;9.102;2023-06-10T01:07:52;9.82;;;6.20;;
27889;SDS011;15238;49.082;9.102;2023-06-10T01:10:20;8.32;;;5.93;;
27889;SDS011;15238;49.082;9.102;2023-06-10T01:14:33;8.25;;;6.00;;
27889;SDS011;15238;49.082;9.102;2023-06-10T01:16:34;8.55;;;5.60;;
27889;SDS011;15238;49.082;9.102;2023-06-10T01:18:36;8.75;;;5.22;;
27889;SDS011;15238;49.082;9.102;2023-06-10T01:20:38;9.27;;;5.47;;
27889;SDS011;15238;49.082;9.102;2023-06-10T01:22:40;8.20;;;5.65;;
27889;SDS011;15238;49.082;9.102;2023-06-10T01:24:40;8.35;;;5.55;;
27889;SDS011;15238;49.082;9.102;2023-06-10T01:26:41;10.30;;;5.80;;
27889;SDS011;15238;49.082;9.102;2023-06-10T01:28:45;6.78;;;5.70;;
27889;SDS011;15238;49.082;9.102;2023-06-10T01:31:03;6.30;;;5.35;;
27889;SDS011;15238;49.082;9.102;2023-06-10T01:33:25;11.10;;;5.75;;
27889;SDS011;15238;49.082;9.102;2023-06-10T01:35:28;10.15;;;5.18;;
27889;SDS011;15238;49.082;9.102;2023-06-10T01:37:31;12.43;;;5.70;;
27889;SDS011;15238;49.082;9.102;2023-06-10T01:39:33;9.48;;;5.30;;
27889;SDS011;15238;49.082;9.102;2023-06-10T01:41:33;8.23;;;5.50;;
27889;SDS011;15238;49.082;9.102;2023-06-10T01:43:37;9.93;;;5.63;;
27889;SDS011;15238;49.082;9.102;2023-06-10T01:45:38;8.38;;;5.85;;
27889;SDS011;15238;49.082;9.102;2023-06-10T01:47:38;7.28;;;5.55;;
27889;SDS011;15238;49.082;9.102;2023-06-10T01:49:39;5.95;;;5.20;;
27889;SDS011;15238;49.082;9.102;2023-06-10T01:51:40;6.30;;;5.60;;
27889;SDS011;15238;49.082;9.102;2023-06-10T01:53:40;8.18;;;6.10;;
27889;SDS011;15238;49.082;9.102;2023-06-10T01:55:41;6.78;;;5.78;;
27889;SDS011;15238;49.082;9.102;2023-06-10T01:57:42;6.15;;;5.45;;
27889;SDS011;15238;49.082;9.102;2023-06-10T01:59:42;7.03;;;5.65;;
27889;SDS011;15238;49.082;9.102;2023-06-10T02:01:44;8.13;;;5.53;;
27889;SDS011;15238;49.082;9.102;2023-06-10T02:03:44;6.05;;;5.43;;
27889;SDS011;15238;49.082;9.102;2023-06-10T02:05:45;8.25;;;5.47;;
27889;SDS011;15238;49.082;9.102;2023-06-10T02:07:46;9.65;;;5.72;;
27889;SDS011;15238;49.082;9.102;2023-06-10T02:09:46;9.60;;;5.80;;
27889;SDS011;15238;49.082;9.102;2023-06-10T02:11:47;5.75;;;5.15;;
27889;SDS011;15238;49.082;9.102;2023-06-10T02:13:47;9.45;;;6.65;;
27889;SDS011;15238;49.082;9.102;2023-06-10T02:15:48;8.63;;;5.25;;
27889;SDS011;15238;49.082;9.102;2023-06-10T02:17:48;6.32;;;5.30;;
27889;SDS011;15238;49.082;9.102;2023-06-10T02:19:49;6.88;;;5.78;;
27889;SDS011;15238;49.082;9.102;2023-06-10T02:21:52;5.60;;;5.10;;
27889;SDS011;15238;49.082;9.102;2023-06-10T02:23:53;8.43;;;5.93;;
27889;SDS011;15238;49.082;9.102;2023-06-10T02:25:53;6.80;;;5.75;;
27889;SDS011;15238;49.082;9.102;2023-06-10T02:27:54;6.45;;;5.45;;
27889;SDS011;15238;49.082;9.102;2023-06-10T02:29:54;9.05;;;5.50;;
27889;SDS011;15238;49.082;9.102;2023-06-10T02:31:55;8.68;;;5.82;;
27889;SDS011;15238;49.082;9.102;2023-06-10T02:33:56;6.20;;;5.60;;
27889;SDS011;15238;49.082;9.102;2023-06-10T02:35:56;6.90;;;5.28;;
27889;SDS011;15238;49.082;9.102;2023-06-10T02:37:57;6.85;;;5.25;;
27889;SDS011;15238;49.082;9.102;2023-06-10T02:39:58;7.00;;;5.35;;
27889;SDS011;15238;49.082;9.102;2023-06-10T02:41:58;7.75;;;5.25;;
27889;SDS011;15238;49.082;9.102;2023-06-10T02:43:59;8.02;;;5.35;;
27889;SDS011;15238;49.082;9.102;2023-06-10T02:45:59;6.30;;;5.57;;
27889;SDS011;15238;49.082;9.102;2023-06-10T02:48:00;6.88;;;5.53;;
27889;SDS011;15238;49.082;9.102;2023-06-10T02:50:00;7.38;;;5.68;;
27889;SDS011;15238;49.082;9.102;2023-06-10T02:52:01;7.28;;;5.50;;
27889;SDS011;15238;49.082;9.102;2023-06-10T02:54:02;9.07;;;5.53;;
27889;SDS011;15238;49.082;9.102;2023-06-10T02:56:03;7.05;;;6.05;;
27889;SDS011;15238;49.082;9.102;2023-06-10T02:58:04;6.60;;;5.65;;
27889;SDS011;15238;49.082;9.102;2023-06-10T03:00:05;7.97;;;5.40;;
27889;SDS011;15238;49.082;9.102;2023-06-10T03:02:10;5.97;;;5.38;;
27889;SDS011;15238;49.082;9.102;2023-06-10T03:04:11;7.78;;;5.80;;
27889;SDS011;15238;49.082;9.102;2023-06-10T03:06:13;7.57;;;5.30;;
27889;SDS011;15238;49.082;9.102;2023-06-10T03:08:14;8.20;;;5.13;;
27889;SDS011;15238;49.082;9.102;2023-06-10T03:10:14;7.65;;;5.50;;
27889;SDS011;15238;49.082;9.102;2023-06-10T03:12:15;6.28;;;5.68;;
27889;SDS011;15238;49.082;9.102;2023-06-10T03:14:16;8.75;;;5.60;;
27889;SDS011;15238;49.082;9.102;2023-06-10T03:16:16;8.77;;;5.90;;
27889;SDS011;15238;49.082;9.102;2023-06-10T03:18:17;8.55;;;6.25;;
27889;SDS011;15238;49.082;9.102;2023-06-10T03:20:17;7.93;;;6.43;;
27889;SDS011;15238;49.082;9.102;2023-06-10T03:22:18;7.53;;;5.80;;
27889;SDS011;15238;49.082;9.102;2023-06-10T03:24:19;7.00;;;5.82;;
27889;SDS011;15238;49.082;9.102;2023-06-10T03:26:19;9.27;;;6.20;;
27889;SDS011;15238;49.082;9.102;2023-06-10T03:28:21;9.40;;;6.35;;
27889;SDS011;15238;49.082;9.102;2023-06-10T03:30:22;6.82;;;5.63;;
27889;SDS011;15238;49.082;9.102;2023-06-10T03:32:22;6.97;;;6.00;;
27889;SDS011;15238;49.082;9.102;2023-06-10T03:34:23;7.90;;;6.03;;
27889;SDS011;15238;49.082;9.102;2023-06-10T03:36:23;9.68;;;5.68;;
27889;SDS011;15238;49.082;9.102;2023-06-10T03:38:24;6.80;;;6.03;;
27889;SDS011;15238;49.082;9.102;2023-06-10T03:40:24;9.48;;;5.82;;
27889;SDS011;15238;49.082;9.102;2023-06-10T03:42:25;7.43;;;5.65;;
27889;SDS011;15238;49.082;9.102;2023-06-10T03:44:25;8.50;;;6.05;;
27889;SDS011;15238;49.082;9.102;2023-06-10T03:46:26;7.38;;;5.75;;
27889;SDS011;15238;49.082;9.102;2023-06-10T03:48:26;7.82;;;6.22;;
27889;SDS011;15238;49.082;9.102;2023-06-10T03:50:27;7.72;;;6.57;;
27889;SDS011;15238;49.082;9.102;2023-06-10T03:52:27;8.27;;;5.75;;
27889;SDS011;15238;49.082;9.102;2023-06-10T03:54:28;8.00;;;5.72;;
27889;SDS011;15238;49.082;9.102;2023-06-10T03:56:29;7.60;;;6.03;;
27889;SDS011;15238;49.082;9.102;2023-06-10T03:58:29;8.18;;;5.97;;
27889;SDS011;15238;49.082;9.102;2023-06-10T04:00:30;6.38;;;5.55;;
27889;SDS011;15238;49.082;9.102;2023-06-10T04:02:30;9.77;;;5.78;;
27889;SDS011;15238;49.082;9.102;2023-06-10T04:04:32;8.10;;;5.88;;
27889;SDS011;15238;49.082;9.102;2023-06-10T04:06:33;8.48;;;5.45;;
27889;SDS011;15238;49.082;9.102;2023-06-10T04:08:33;8.13;;;5.72;;
27889;SDS011;15238;49.082;9.102;2023-06-10T04:10:34;6.78;;;5.45;;
27889;SDS011;15238;49.082;9.102;2023-06-10T04:12:35;7.45;;;5.50;;
27889;SDS011;15238;49.082;9.102;2023-06-10T04:14:36;6.93;;;5.70;;
27889;SDS011;15238;49.082;9.102;2023-06-10T04:16:37;8.90;;;5.28;;
27889;SDS011;15238;49.082;9.102;2023-06-10T04:18:38;6.50;;;5.25;;
27889;SDS011;15238;49.082;9.102;2023-06-10T04:20:38;5.97;;;5.38;;
27889;SDS011;15238;49.082;9.102;2023-06-10T04:22:39;6.95;;;5.13;;
27889;SDS011;15238;49.082;9.102;2023-06-10T04:24:40;7.18;;;5.47;;
27889;SDS011;15238;49.082;9.102;2023-06-10T04:26:41;7.10;;;5.45;;
27889;SDS011;15238;49.082;9.102;2023-06-10T04:28:45;6.90;;;5.75;;
27889;SDS011;15238;49.082;9.102;2023-06-10T04:30:45;7.70;;;6.15;;
27889;SDS011;15238;49.082;9.102;2023-06-10T04:32:46;9.30;;;5.03;;
27889;SDS011;15238;49.082;9.102;2023-06-10T04:34:47;6.85;;;5.25;;
27889;SDS011;15238;49.082;9.102;2023-06-10T04:36:47;7.18;;;5.68;;
27889;SDS011;15238;49.082;9.102;2023-06-10T04:38:48;5.57;;;5.05;;
27889;SDS011;15238;49.082;9.102;2023-06-10T04:40:48;8.07;;;5.50;;
27889;SDS011;15238;49.082;9.102;2023-06-10T04:42:49;7.72;;;5.38;;
27889;SDS011;15238;49.082;9.102;2023-06-10T04:44:49;7.63;;;5.50;;
27889;SDS011;15238;49.082;9.102;2023-06-10T04:46:50;8.65;;;5.40;;
27889;SDS011;15238;49.082;9.102;2023-06-10T04:48:50;6.90;;;4.97;;
27889;SDS011;15238;49.082;9.102;2023-06-10T04:50:51;6.93;;;5.40;;
27889;SDS011;15238;49.082;9.102;2023-06-10T04:52:52;10.00;;;5.65;;
27889;SDS011;15238;49.082;9.102;2023-06-10T04:54:52;8.05;;;5.30;;
27889;SDS011;15238;49.082;9.102;2023-06-10T04:56:54;8.55;;;5.30;;
27889;SDS011;15238;49.082;9.102;2023-06-10T04:58:54;7.53;;;5.28;;
27889;SDS011;15238;49.082;9.102;2023-06-10T05:00:55;8.63;;;5.05;;
27889;SDS011;15238;49.082;9.102;2023-06-10T05:02:55;6.28;;;5.10;;
27889;SDS011;15238;49.082;9.102;2023-06-10T05:04:56;9.15;;;5.88;;
27889;SDS011;15238;49.082;9.102;2023-06-10T05:06:57;9.20;;;5.70;;
27889;SDS011;15238;49.082;9.102;2023-06-10T05:08:58;8.73;;;5.50;;
27889;SDS011;15238;49.082;9.102;2023-06-10T05:10:58;8.48;;;5.32;;
27889;SDS011;15238;49.082;9.102;2023-06-10T05:12:59;6.63;;;5.65;;
27889;SDS011;15238;49.082;9.102;2023-06-10T05:15:00;7.65;;;5.30;;
27889;SDS011;15238;49.082;9.102;2023-06-10T05:17:01;7.55;;;5.68;;
27889;SDS011;15238;49.082;9.102;2023-06-10T05:19:01;10.77;;;5.60;;
27889;SDS011;15238;49.082;9.102;2023-06-10T05:21:02;7.68;;;5.55;;
27889;SDS011;15238;49.082;9.102;2023-06-10T05:23:02;6.68;;;5.10;;
27889;SDS011;15238;49.082;9.102;2023-06-10T05:25:03;8.00;;;5.22;;
27889;SDS011;15238;49.082;9.102;2023-06-10T05:27:04;6.47;;;5.45;;
27889;SDS011;15238;49.082;9.102;2023-06-10T05:29:07;7.50;;;5.32;;
27889;SDS011;15238;49.082;9.102;2023-06-10T05:31:09;6.70;;;5.53;;
27889;SDS011;15238;49.082;9.102;2023-06-10T05:33:09;6.57;;;5.55;;
27889;SDS011;15238;49.082;9.102;2023-06-10T05:35:10;5.65;;;4.90;;
27889;SDS011;15238;49.082;9.102;2023-06-10T05:37:10;5.38;;;4.88;;
27889;SDS011;15238;49.082;9.102;2023-06-10T05:39:12;8.95;;;5.68;;
27889;SDS011;15238;49.082;9.102;2023-06-10T05:41:12;6.28;;;5.50;;
27889;SDS011;15238;49.082;9.102;2023-06-10T05:43:13;6.63;;;5.53;;
27889;SDS011;15238;49.082;9.102;2023-06-10T05:45:14;6.90;;;4.72;;
27889;SDS011;15238;49.082;9.102;2023-06-10T05:47:14;11.95;;;6.13;;
27889;SDS011;15238;49.082;9.102;2023-06-10T05:49:15;5.70;;;4.72;;
27889;SDS011;15238;49.082;9.102;2023-06-10T05:51:15;10.00;;;5.50;;
27889;SDS011;15238;49.082;9.102;2023-06-10T05:53:16;10.00;;;5.28;;
27889;SDS011;15238;49.082;9.102;2023-06-10T05:55:17;8.63;;;5.05;;
27889;SDS011;15238;49.082;9.102;2023-06-10T05:57:17;13.63;;;4.90;;
27889;SDS011;15238;49.082;9.102;2023-06-10T05:59:18;6.53;;;5.25;;
27889;SDS011;15238;49.082;9.102;2023-06-10T06:01:19;8.07;;;5.43;;
27889;SDS011;15238;49.082;9.102;2023-06-10T06:03:19;6.20;;;5.05;;
27889;SDS011;15238;49.082;9.102;2023-06-10T06:05:20;5.65;;;4.72;;
27889;SDS011;15238;49.082;9.102;2023-06-10T06:07:20;6.20;;;5.07;;
27889;SDS011;15238;49.082;9.102;2023-06-10T06:09:22;8.35;;;5.40;;
27889;SDS011;15238;49.082;9.102;2023-06-10T06:11:22;7.05;;;4.63;;
27889;SDS011;15238;49.082;9.102;2023-06-10T06:13:23;6.28;;;5.18;;
27889;SDS011;15238;49.082;9.102;2023-06-10T06:15:23;8.70;;;5.22;;
27889;SDS011;15238;49.082;9.102;2023-06-10T06:17:24;6.53;;;5.07;;
27889;SDS011;15238;49.082;9.102;2023-06-10T06:19:24;5.50;;;4.55;;
27889;SDS011;15238;49.082;9.102;2023-06-10T06:21:25;10.50;;;5.18;;
27889;SDS011;15238;49.082;9.102;2023-06-10T06:23:25;5.70;;;4.53;;
27889;SDS011;15238;49.082;9.102;2023-06-10T06:25:26;6.30;;;4.90;;
27889;SDS011;15238;49.082;9.102;2023-06-10T06:27:27;5.78;;;5.05;;
27889;SDS011;15238;49.082;9.102;2023-06-10T06:29:28;6.68;;;5.07;;
27889;SDS011;15238;49.082;9.102;2023-06-10T06:31:30;5.35;;;4.30;;
27889;SDS011;15238;49.082;9.102;2023-06-10T06:33:30;5.28;;;4.43;;
27889;SDS011;15238;49.082;9.102;2023-06-10T06:35:32;6.70;;;4.63;;
27889;SDS011;15238;49.082;9.102;2023-06-10T06:37:34;5.35;;;4.63;;
27889;SDS011;15238;49.082;9.102;2023-06-10T06:39:35;4.55;;;4.07;;
27889;SDS011;15238;49.082;9.102;2023-06-10T06:41:35;4.05;;;3.65;;
27889;SDS011;15238;49.082;9.102;2023-06-10T06:43:36;5.15;;;3.95;;
27889;SDS011;15238;49.082;9.102;2023-06-10T06:45:37;6.30;;;4.65;;
27889;SDS011;15238;49.082;9.102;2023-06-10T06:47:37;6.65;;;4.28;;
27889;SDS011;15238;49.082;9.102;2023-06-10T06:49:38;6.03;;;4.88;;
27889;SDS011;15238;49.082;9.102;2023-06-10T06:51:38;5.85;;;4.20;;
27889;SDS011;15238;49.082;9.102;2023-06-10T06:53:39;5.13;;;4.32;;
27889;SDS011;15238;49.082;9.102;2023-06-10T06:55:44;5.97;;;4.18;;
27889;SDS011;15238;49.082;9.102;2023-06-10T06:57:44;6.65;;;4.15;;
27889;SDS011;15238;49.082;9.102;2023-06-10T06:59:45;5.22;;;4.63;;
27889;SDS011;15238;49.082;9.102;2023-06-10T07:01:46;4.93;;;4.22;;
27889;SDS011;15238;49.082;9.102;2023-06-10T07:03:47;5.25;;;4.60;;
27889;SDS011;15238;49.082;9.102;2023-06-10T07:05:47;4.80;;;4.13;;
27889;SDS011;15238;49.082;9.102;2023-06-10T07:07:48;4.75;;;3.90;;
27889;SDS011;15238;49.082;9.102;2023-06-10T07:09:54;4.82;;;3.95;;
27889;SDS011;15238;49.082;9.102;2023-06-10T07:11:55;4.53;;;4.10;;
27889;SDS011;15238;49.082;9.102;2023-06-10T07:13:56;5.18;;;4.40;;
27889;SDS011;15238;49.082;9.102;2023-06-10T07:15:56;5.78;;;4.18;;
27889;SDS011;15238;49.082;9.102;2023-06-10T07:17:57;6.45;;;4.32;;
27889;SDS011;15238;49.082;9.102;2023-06-10T07:19:57;5.10;;;4.30;;
27889;SDS011;15238;49.082;9.102;2023-06-10T07:21:59;7.55;;;4.45;;
27889;SDS011;15238;49.082;9.102;2023-06-10T07:24:00;4.88;;;3.92;;
27889;SDS011;15238;49.082;9.102;2023-06-10T07:26:00;5.95;;;4.75;;
27889;SDS011;15238;49.082;9.102;2023-06-10T07:28:01;7.95;;;4.53;;
27889;SDS011;15238;49.082;9.102;2023-06-10T07:30:02;5.97;;;3.83;;
27889;SDS011;15238;49.082;9.102;2023-06-10T07:32:03;4.90;;;4.28;;
27889;SDS011;15238;49.082;9.102;2023-06-10T07:34:04;7.20;;;4.70;;
27889;SDS011;15238;49.082;9.102;2023-06-10T07:36:05;4.90;;;4.40;;
27889;SDS011;15238;49.082;9.102;2023-06-10T07:38:06;8.43;;;3.90;;
27889;SDS011;15238;49.082;9.102;2023-06-10T07:40:07;4.45;;;4.05;;
27889;SDS011;15238;49.082;9.102;2023-06-10T07:42:08;8.35;;;4.00;;
27889;SDS011;15238;49.082;9.102;2023-06-10T07:44:08;4.75;;;4.07;;
27889;SDS011;15238;49.082;9.102;2023-06-10T07:46:09;5.22;;;4.00;;
27889;SDS011;15238;49.082;9.102;2023-06-10T07:48:09;5.57;;;4.10;;
27889;SDS011;15238;49.082;9.102;2023-06-10T07:50:10;5.95;;;4.20;;
27889;SDS011;15238;49.082;9.102;2023-06-10T07:52:11;5.88;;;3.80;;
27889;SDS011;15238;49.082;9.102;2023-06-10T07:54:11;5.85;;;3.92;;
27889;SDS011;15238;49.082;9.102;2023-06-10T07:56:12;4.70;;;4.18;;
27889;SDS011;15238;49.082;9.102;2023-06-10T07:58:13;7.60;;;4.30;;
27889;SDS011;15238;49.082;9.102;2023-06-10T08:00:13;4.15;;;3.75;;
27889;SDS011;15238;49.082;9.102;2023-06-10T08:02:14;5.95;;;4.30;;
27889;SDS011;15238;49.082;9.102;2023-06-10T08:04:14;7.70;;;3.72;;
27889;SDS011;15238;49.082;9.102;2023-06-10T08:06:15;5.38;;;3.70;;
27889;SDS011;15238;49.082;9.102;2023-06-10T08:08:17;5.57;;;4.15;;
27889;SDS011;15238;49.082;9.102;2023-06-10T08:10:17;4.40;;;4.00;;
27889;SDS011;15238;49.082;9.102;2023-06-10T08:12:18;4.30;;;3.90;;
27889;SDS011;15238;49.082;9.102;2023-06-10T08:14:19;4.28;;;3.88;;
27889;SDS011;15238;49.082;9.102;2023-06-10T08:16:19;4.70;;;4.15;;
27889;SDS011;15238;49.082;9.102;2023-06-10T08:18:20;4.07;;;3.67;;
27889;SDS011;15238;49.082;9.102;2023-06-10T08:20:21;4.60;;;3.95;;
27889;SDS011;15238;49.082;9.102;2023-06-10T08:22:21;5.43;;;3.90;;
27889;SDS011;15238;49.082;9.102;2023-06-10T08:24:22;5.30;;;4.00;;
27889;SDS011;15238;49.082;9.102;2023-06-10T08:26:23;4.10;;;3.70;;
27889;SDS011;15238;49.082;9.102;2023-06-10T08:28:24;4.82;;;4.03;;
27889;SDS011;15238;49.082;9.102;2023-06-10T08:30:25;5.47;;;3.63;;
27889;SDS011;15238;49.082;9.102;2023-06-10T08:32:25;5.53;;;3.42;;
27889;SDS011;15238;49.082;9.102;2023-06-10T08:34:26;3.97;;;3.60;;
27889;SDS011;15238;49.082;9.102;2023-06-10T08:36:26;5.05;;;4.55;;
27889;SDS011;15238;49.082;9.102;2023-06-10T08:38:27;6.13;;;3.80;;
27889;SDS011;15238;49.082;9.102;2023-06-10T08:40:27;4.88;;;4.07;;
27889;SDS011;15238;49.082;9.102;2023-06-10T08:42:34;5.80;;;4.00;;
27889;SDS011;15238;49.082;9.102;2023-06-10T08:44:40;4.82;;;3.95;;
27889;SDS011;15238;49.082;9.102;2023-06-10T08:46:42;4.97;;;4.00;;
27889;SDS011;15238;49.082;9.102;2023-06-10T08:48:45;4.53;;;3.97;;
27889;SDS011;15238;49.082;9.102;2023-06-10T08:50:48;5.10;;;4.10;;
27889;SDS011;15238;49.082;9.102;2023-06-10T08:52:53;6.10;;;4.05;;
27889;SDS011;15238;49.082;9.102;2023-06-10T08:55:02;4.85;;;4.00;;
27889;SDS011;15238;49.082;9.102;2023-06-10T08:57:05;6.20;;;4.20;;
27889;SDS011;15238;49.082;9.102;2023-06-10T08:59:06;7.30;;;4.28;;
27889;SDS011;15238;49.082;9.102;2023-06-10T09:01:08;6.18;;;4.45;;
27889;SDS011;15238;49.082;9.102;2023-06-10T09:03:08;4.22;;;3.83;;
27889;SDS011;15238;49.082;9.102;2023-06-10T09:05:09;5.32;;;4.60;;
27889;SDS011;15238;49.082;9.102;2023-06-10T09:07:10;6.40;;;4.30;;
27889;SDS011;15238;49.082;9.102;2023-06-10T09:09:12;4.95;;;4.45;;
27889;SDS011;15238;49.082;9.102;2023-06-10T09:11:14;4.95;;;4.45;;
27889;SDS011;15238;49.082;9.102;2023-06-10T09:13:15;5.95;;;4.60;;
27889;SDS011;15238;49.082;9.102;2023-06-10T09:15:18;4.53;;;4.13;;
27889;SDS011;15238;49.082;9.102;2023-06-10T09:17:19;7.45;;;4.35;;
27889;SDS011;15238;49.082;9.102;2023-06-10T09:19:20;6.03;;;4.60;;
27889;SDS011;15238;49.082;9.102;2023-06-10T09:21:24;4.32;;;3.92;;
27889;SDS011;15238;49.082;9.102;2023-06-10T09:23:25;5.82;;;4.78;;
27889;SDS011;15238;49.082;9.102;2023-06-10T09:25:34;6.82;;;4.28;;
27889;SDS011;15238;49.082;9.102;2023-06-10T09:27:44;6.88;;;4.28;;
27889;SDS011;15238;49.082;9.102;2023-06-10T09:31:54;5.97;;;3.90;;
27889;SDS011;15238;49.082;9.102;2023-06-10T09:33:54;5.90;;;4.10;;
27889;SDS011;15238;49.082;9.102;2023-06-10T09:38:04;4.32;;;3.90;;
27889;SDS011;15238;49.082;9.102;2023-06-10T09:40:05;5.05;;;4.22;;
27889;SDS011;15238;49.082;9.102;2023-06-10T09:42:16;4.55;;;4.13;;
27889;SDS011;15238;49.082;9.102;2023-06-10T09:44:18;4.60;;;3.92;;
27889;SDS011;15238;49.082;9.102;2023-06-10T09:46:20;7.15;;;4.45;;
27889;SDS011;15238;49.082;9.102;2023-06-10T09:48:21;5.85;;;4.68;;
27889;SDS011;15238;49.082;9.102;2023-06-10T09:50:23;5.18;;;4.57;;
27889;SDS011;15238;49.082;9.102;2023-06-10T09:52:24;5.45;;;4.25;;
27889;SDS011;15238;49.082;9.102;2023-06-10T09:54:26;4.57;;;4.18;;
27889;SDS011;15238;49.082;9.102;2023-06-10T09:56:32;4.70;;;4.20;;
27889;SDS011;15238;49.082;9.102;2023-06-10T09:58:37;6.60;;;5.20;;
27889;SDS011;15238;49.082;9.102;2023-06-10T10:00:38;5.80;;;4.47;;
27889;SDS011;15238;49.082;9.102;2023-06-10T10:02:45;4.90;;;4.40;;
27889;SDS011;15238;49.082;9.102;2023-06-10T10:04:50;5.78;;;4.10;;
27889;SDS011;15238;49.082;9.102;2023-06-10T10:06:50;5.10;;;4.60;;
27889;SDS011;15238;49.082;9.102;2023-06-10T10:08:51;9.77;;;4.70;;
27889;SDS011;15238;49.082;9.102;2023-06-10T10:10:52;6.05;;;4.30;;
27889;SDS011;15238;49.082;9.102;2023-06-10T10:12:55;4.80;;;4.30;;
27889;SDS011;15238;49.082;9.102;2023-06-10T10:14:56;6.00;;;4.13;;
27889;SDS011;15238;49.082;9.102;2023-06-10T10:16:57;5.15;;;4.65;;
27889;SDS011;15238;49.082;9.102;2023-06-10T10:19:02;5.63;;;5.03;;
27889;SDS011;15238;49.082;9.102;2023-06-10T10:21:25;4.47;;;4.07;;
27889;SDS011;15238;49.082;9.102;2023-06-10T10:23:32;4.45;;;4.05;;
27889;SDS011;15238;49.082;9.102;2023-06-10T10:25:40;4.68;;;4.22;;
27889;SDS011;15238;49.082;9.102;2023-06-10T10:27:49;5.10;;;4.38;;
27889;SDS011;15238;49.082;9.102;2023-06-10T10:29:52;8.05;;;4.70;;
27889;SDS011;15238;49.082;9.102;2023-06-10T10:31:55;5.18;;;4.70;;
27889;SDS011;15238;49.082;9.102;2023-06-10T10:34:01;6.40;;;4.25;;
27889;SDS011;15238;49.082;9.102;2023-06-10T10:36:06;4.47;;;4.07;;
27889;SDS011;15238;49.082;9.102;2023-06-10T10:38:07;5.30;;;4.53;;
27889;SDS011;15238;49.082;9.102;2023-06-10T10:40:08;4.57;;;4.18;;
27889;SDS011;15238;49.082;9.102;2023-06-10T10:42:11;7.07;;;4.47;;
27889;SDS011;15238;49.082;9.102;2023-06-10T10:44:13;5.25;;;4.78;;
27889;SDS011;15238;49.082;9.102;2023-06-10T10:46:14;5.95;;;4.55;;
27889;SDS011;15238;49.082;9.102;2023-06-10T10:48:17;4.80;;;3.55;;
27889;SDS011;15238;49.082;9.102;2023-06-10T10:50:18;4.78;;;4.05;;
27889;SDS011;15238;49.082;9.102;2023-06-10T10:52:20;4.97;;;3.97;;
27889;SDS011;15238;49.082;9.102;2023-06-10T10:54:22;5.93;;;3.80;;
27889;SDS011;15238;49.082;9.102;2023-06-10T10:56:29;4.10;;;3.70;;
27889;SDS011;15238;49.082;9.102;2023-06-10T10:58:30;5.28;;;3.95;;
27889;SDS011;15238;49.082;9.102;2023-06-10T11:00:33;6.82;;;3.67;;
27889;SDS011;15238;49.082;9.102;2023-06-10T11:02:36;6.78;;;4.28;;
27889;SDS011;15238;49.082;9.102;2023-06-10T11:04:44;5.90;;;4.15;;
27889;SDS011;15238;49.082;9.102;2023-06-10T11:06:52;4.30;;;3.97;;
27889;SDS011;15238;49.082;9.102;2023-06-10T11:08:53;3.95;;;3.65;;
27889;SDS011;15238;49.082;9.102;2023-06-10T11:10:54;4.55;;;4.15;;
27889;SDS011;15238;49.082;9.102;2023-06-10T11:12:54;4.47;;;4.07;;
27889;SDS011;15238;49.082;9.102;2023-06-10T11:14:56;4.03;;;3.72;;
27889;SDS011;15238;49.082;9.102;2023-06-10T11:16:59;5.15;;;3.78;;
27889;SDS011;15238;49.082;9.102;2023-06-10T11:19:00;5.00;;;3.60;;
27889;SDS011;15238;49.082;9.102;2023-06-10T11:21:01;4.53;;;3.60;;
27889;SDS011;15238;49.082;9.102;2023-06-10T11:23:05;4.00;;;3.60;;
27889;SDS011;15238;49.082;9.102;2023-06-10T11:25:13;5.07;;;4.05;;
27889;SDS011;15238;49.082;9.102;2023-06-10T11:27:18;4.38;;;3.97;;
27889;SDS011;15238;49.082;9.102;2023-06-10T11:29:19;3.72;;;3.42;;
27889;SDS011;15238;49.082;9.102;2023-06-10T11:31:30;5.13;;;3.60;;
27889;SDS011;15238;49.082;9.102;2023-06-10T11:33:39;4.45;;;3.95;;
27889;SDS011;15238;49.082;9.102;2023-06-10T11:35:39;4.65;;;3.92;;
27889;SDS011;15238;49.082;9.102;2023-06-10T11:37:40;3.80;;;3.50;;
27889;SDS011;15238;49.082;9.102;2023-06-10T11:39:41;4.03;;;3.72;;
27889;SDS011;15238;49.082;9.102;2023-06-10T11:41:42;4.43;;;3.75;;
27889;SDS011;15238;49.082;9.102;2023-06-10T11:43:43;6.32;;;4.07;;
27889;SDS011;15238;49.082;9.102;2023-06-10T11:45:44;3.95;;;3.60;;
27889;SDS011;15238;49.082;9.102;2023-06-10T11:47:57;3.88;;;3.58;;
27889;SDS011;15238;49.082;9.102;2023-06-10T11:49:59;4.35;;;3.78;;
27889;SDS011;15238;49.082;9.102;2023-06-10T11:51:59;4.22;;;3.83;;
27889;SDS011;15238;49.082;9.102;2023-06-10T11:54:01;4.30;;;3.90;;
27889;SDS011;15238;49.082;9.102;2023-06-10T11:56:03;7.15;;;4.20;;
27889;SDS011;15238;49.082;9.102;2023-06-10T11:58:03;3.80;;;3.50;;
27889;SDS011;15238;49.082;9.102;2023-06-10T12:00:19;4.72;;;3.13;;
27889;SDS011;15238;49.082;9.102;2023-06-10T12:02:28;3.53;;;3.05;;
27889;SDS011;15238;49.082;9.102;2023-06-10T12:04:29;4.95;;;3.33;;
27889;SDS011;15238;49.082;9.102;2023-06-10T12:09:26;3.13;;;2.83;;
27889;SDS011;15238;49.082;9.102;2023-06-10T12:11:26;6.72;;;3.38;;
27889;SDS011;15238;49.082;9.102;2023-06-10T12:13:27;4.03;;;3.28;;
27889;SDS011;15238;49.082;9.102;2023-06-10T12:15:28;3.72;;;2.88;;
27889;SDS011;15238;49.082;9.102;2023-06-10T12:19:39;4.10;;;3.53;;
27889;SDS011;15238;49.082;9.102;2023-06-10T12:21:40;4.20;;;3.30;;
27889;SDS011;15238;49.082;9.102;2023-06-10T12:23:58;4.32;;;3.17;;
27889;SDS011;15238;49.082;9.102;2023-06-10T12:26:09;3.47;;;3.13;;